sensor_id;sensor_type;location;lat;lon;timestamp;pressure;altitude;pressure_sealevel;temperature;humidity
64841;BME280;51307;52.162;7.560;2023-02-16T00:00:28;101866.47;;;7.26;53.79
64841;BME280;51307;52.162;7.560;2023-02-16T00:02:55;101861.19;;;7.37;53.41
64841;BME280;51307;52.162;7.560;2023-02-16T00:05:30;101861.47;;;7.21;53.91
64841;BME280;51307;52.162;7.560;2023-02-16T00:07:58;101853.44;;;7.10;54.07
64841;BME280;51307;52.162;7.560;2023-02-16T00:10:25;101851.66;;;6.97;54.24
64841;BME280;51307;52.162;7.560;2023-02-16T00:12:53;101853.03;;;7.03;54.30
64841;BME280;51307;52.162;7.560;2023-02-16T00:15:36;101848.25;;;6.95;54.52
64841;BME280;51307;52.162;7.560;2023-02-16T00:18:09;101857.97;;;7.20;54.05
64841;BME280;51307;52.162;7.560;2023-02-16T00:20:38;101850.00;;;7.20;53.85
64841;BME280;51307;52.162;7.560;2023-02-16T00:23:04;101845.41;;;6.98;54.30
64841;BME280;51307;52.162;7.560;2023-02-16T00:25:29;101843.38;;;6.89;54.65
64841;BME280;51307;52.162;7.560;2023-02-16T00:27:55;101845.03;;;7.03;54.54
64841;BME280;51307;52.162;7.560;2023-02-16T00:30:21;101844.09;;;7.04;54.35
64841;BME280;51307;52.162;7.560;2023-02-16T00:32:46;101841.72;;;7.12;54.12
64841;BME280;51307;52.162;7.560;2023-02-16T00:35:16;101843.19;;;7.16;53.84
64841;BME280;51307;52.162;7.560;2023-02-16T00:37:42;101839.78;;;7.14;53.69
64841;BME280;51307;52.162;7.560;2023-02-16T00:40:08;101843.31;;;7.15;53.58
64841;BME280;51307;52.162;7.560;2023-02-16T00:42:34;101847.69;;;6.90;54.04
64841;BME280;51307;52.162;7.560;2023-02-16T00:45:00;101853.31;;;6.61;55.17
64841;BME280;51307;52.162;7.560;2023-02-16T00:47:35;101850.41;;;6.64;55.02
64841;BME280;51307;52.162;7.560;2023-02-16T00:50:45;101860.09;;;6.65;54.69
64841;BME280;51307;52.162;7.560;2023-02-16T00:52:51;101852.13;;;6.65;54.87
64841;BME280;51307;52.162;7.560;2023-02-16T00:55:22;101849.56;;;6.51;55.23
64841;BME280;51307;52.162;7.560;2023-02-16T01:00:38;101849.06;;;6.07;55.19
64841;BME280;51307;52.162;7.560;2023-02-16T01:03:10;101854.66;;;6.02;55.26
64841;BME280;51307;52.162;7.560;2023-02-16T01:05:36;101861.69;;;5.90;55.37
64841;BME280;51307;52.162;7.560;2023-02-16T01:08:08;101859.44;;;5.84;55.33
64841;BME280;51307;52.162;7.560;2023-02-16T01:10:52;101854.97;;;5.72;55.91
64841;BME280;51307;52.162;7.560;2023-02-16T01:13:27;101848.88;;;5.70;55.75
64841;BME280;51307;52.162;7.560;2023-02-16T01:15:53;101857.16;;;5.65;55.84
64841;BME280;51307;52.162;7.560;2023-02-16T01:18:19;101848.75;;;5.59;55.77
64841;BME280;51307;52.162;7.560;2023-02-16T01:20:45;101850.03;;;5.53;56.02
64841;BME280;51307;52.162;7.560;2023-02-16T01:23:11;101851.69;;;5.54;55.69
64841;BME280;51307;52.162;7.560;2023-02-16T01:25:37;101849.31;;;5.36;55.84
64841;BME280;51307;52.162;7.560;2023-02-16T01:28:20;101838.69;;;5.36;55.88
64841;BME280;51307;52.162;7.560;2023-02-16T01:30:46;101841.81;;;5.16;55.92
64841;BME280;51307;52.162;7.560;2023-02-16T01:33:12;101838.94;;;5.19;56.12
64841;BME280;51307;52.162;7.560;2023-02-16T01:35:38;101841.44;;;5.08;56.26
64841;BME280;51307;52.162;7.560;2023-02-16T01:38:03;101846.41;;;4.99;56.37
64841;BME280;51307;52.162;7.560;2023-02-16T01:43:09;101843.75;;;4.99;56.61
64841;BME280;51307;52.162;7.560;2023-02-16T01:45:45;101846.59;;;4.96;56.51
64841;BME280;51307;52.162;7.560;2023-02-16T01:48:26;101843.09;;;4.96;56.48
64841;BME280;51307;52.162;7.560;2023-02-16T01:54:00;101841.91;;;5.14;56.17
64841;BME280;51307;52.162;7.560;2023-02-16T01:56:42;101837.72;;;4.83;56.63
64841;BME280;51307;52.162;7.560;2023-02-16T02:02:33;101836.97;;;4.81;56.39
64841;BME280;51307;52.162;7.560;2023-02-16T02:05:23;101833.38;;;4.82;56.24
64841;BME280;51307;52.162;7.560;2023-02-16T02:10:48;101835.06;;;4.83;56.67
64841;BME280;51307;52.162;7.560;2023-02-16T02:15:58;101827.13;;;4.68;56.57
64841;BME280;51307;52.162;7.560;2023-02-16T02:18:25;101824.00;;;4.62;56.69
64841;BME280;51307;52.162;7.560;2023-02-16T02:27:33;101813.13;;;4.52;56.68
64841;BME280;51307;52.162;7.560;2023-02-16T02:35:47;101788.78;;;4.45;56.65
64841;BME280;51307;52.162;7.560;2023-02-16T02:41:14;101796.53;;;4.34;57.26
64841;BME280;51307;52.162;7.560;2023-02-16T02:43:59;101796.72;;;4.31;57.24
64841;BME280;51307;52.162;7.560;2023-02-16T02:46:33;101797.47;;;4.33;57.99
64841;BME280;51307;52.162;7.560;2023-02-16T02:48:59;101795.50;;;4.36;57.50
64841;BME280;51307;52.162;7.560;2023-02-16T02:51:25;101792.94;;;4.35;57.39
64841;BME280;51307;52.162;7.560;2023-02-16T02:56:46;101783.38;;;4.32;57.66
64841;BME280;51307;52.162;7.560;2023-02-16T02:59:35;101785.66;;;4.24;57.15
64841;BME280;51307;52.162;7.560;2023-02-16T03:02:23;101779.50;;;4.38;56.84
64841;BME280;51307;52.162;7.560;2023-02-16T03:04:52;101785.75;;;4.22;57.29
64841;BME280;51307;52.162;7.560;2023-02-16T03:07:22;101783.31;;;4.19;57.07
64841;BME280;51307;52.162;7.560;2023-02-16T03:10:13;101776.75;;;4.11;57.12
64841;BME280;51307;52.162;7.560;2023-02-16T03:13:00;101772.81;;;4.03;57.30
64841;BME280;51307;52.162;7.560;2023-02-16T03:15:29;101772.13;;;4.00;57.77
64841;BME280;51307;52.162;7.560;2023-02-16T03:17:58;101768.81;;;3.96;57.64
64841;BME280;51307;52.162;7.560;2023-02-16T03:20:45;101765.19;;;3.83;57.85
64841;BME280;51307;52.162;7.560;2023-02-16T03:23:31;101765.88;;;3.86;57.73
64841;BME280;51307;52.162;7.560;2023-02-16T03:26:17;101767.75;;;3.84;57.47
64841;BME280;51307;52.162;7.560;2023-02-16T03:29:05;101767.84;;;3.83;57.96
64841;BME280;51307;52.162;7.560;2023-02-16T03:31:48;101775.13;;;3.79;58.07
64841;BME280;51307;52.162;7.560;2023-02-16T03:34:17;101773.72;;;3.88;58.00
64841;BME280;51307;52.162;7.560;2023-02-16T03:36:47;101773.13;;;3.83;57.93
64841;BME280;51307;52.162;7.560;2023-02-16T03:39:13;101784.09;;;3.91;57.94
64841;BME280;51307;52.162;7.560;2023-02-16T03:41:43;101775.06;;;3.95;58.34
64841;BME280;51307;52.162;7.560;2023-02-16T03:44:10;101777.72;;;3.95;58.16
64841;BME280;51307;52.162;7.560;2023-02-16T03:46:35;101780.53;;;3.92;58.30
64841;BME280;51307;52.162;7.560;2023-02-16T03:49:01;101786.59;;;3.94;58.20
64841;BME280;51307;52.162;7.560;2023-02-16T03:51:26;101791.78;;;3.96;58.61
64841;BME280;51307;52.162;7.560;2023-02-16T03:53:52;101787.53;;;3.93;57.85
64841;BME280;51307;52.162;7.560;2023-02-16T03:56:18;101785.91;;;3.91;57.78
64841;BME280;51307;52.162;7.560;2023-02-16T03:58:44;101779.56;;;3.79;57.40
64841;BME280;51307;52.162;7.560;2023-02-16T04:01:09;101770.88;;;3.77;57.51
64841;BME280;51307;52.162;7.560;2023-02-16T04:03:35;101775.69;;;3.70;58.36
64841;BME280;51307;52.162;7.560;2023-02-16T04:06:00;101771.91;;;3.74;58.20
64841;BME280;51307;52.162;7.560;2023-02-16T04:08:26;101773.78;;;3.72;58.32
64841;BME280;51307;52.162;7.560;2023-02-16T04:10:51;101772.09;;;3.71;58.10
64841;BME280;51307;52.162;7.560;2023-02-16T04:13:18;101766.97;;;3.68;58.25
64841;BME280;51307;52.162;7.560;2023-02-16T04:15:44;101771.97;;;3.58;58.45
64841;BME280;51307;52.162;7.560;2023-02-16T04:18:10;101769.50;;;3.69;58.34
64841;BME280;51307;52.162;7.560;2023-02-16T04:20:35;101776.91;;;3.64;58.51
64841;BME280;51307;52.162;7.560;2023-02-16T04:23:01;101779.94;;;3.72;58.15
64841;BME280;51307;52.162;7.560;2023-02-16T04:25:27;101768.19;;;3.62;57.96
64841;BME280;51307;52.162;7.560;2023-02-16T04:27:54;101771.78;;;3.61;58.46
64841;BME280;51307;52.162;7.560;2023-02-16T04:30:29;101771.41;;;3.67;59.01
64841;BME280;51307;52.162;7.560;2023-02-16T04:32:55;101767.50;;;3.59;58.35
64841;BME280;51307;52.162;7.560;2023-02-16T04:35:22;101768.47;;;3.58;58.48
64841;BME280;51307;52.162;7.560;2023-02-16T04:37:47;101775.28;;;3.62;58.54
64841;BME280;51307;52.162;7.560;2023-02-16T04:40:15;101779.22;;;3.54;59.04
64841;BME280;51307;52.162;7.560;2023-02-16T04:42:43;101775.53;;;3.57;59.16
64841;BME280;51307;52.162;7.560;2023-02-16T04:45:10;101771.28;;;3.54;58.45
64841;BME280;51307;52.162;7.560;2023-02-16T04:47:36;101763.84;;;3.61;58.66
64841;BME280;51307;52.162;7.560;2023-02-16T04:50:02;101765.88;;;3.42;59.08
64841;BME280;51307;52.162;7.560;2023-02-16T04:52:28;101774.66;;;3.42;58.73
64841;BME280;51307;52.162;7.560;2023-02-16T04:54:53;101773.13;;;3.38;59.82
64841;BME280;51307;52.162;7.560;2023-02-16T04:57:19;101776.56;;;3.40;59.77
64841;BME280;51307;52.162;7.560;2023-02-16T04:59:46;101779.41;;;3.51;59.15
64841;BME280;51307;52.162;7.560;2023-02-16T05:02:12;101778.81;;;3.46;59.84
64841;BME280;51307;52.162;7.560;2023-02-16T05:04:37;101772.69;;;3.46;59.97
64841;BME280;51307;52.162;7.560;2023-02-16T05:07:03;101776.13;;;3.62;59.75
64841;BME280;51307;52.162;7.560;2023-02-16T05:09:28;101780.00;;;3.57;59.64
64841;BME280;51307;52.162;7.560;2023-02-16T05:11:54;101774.41;;;3.47;58.66
64841;BME280;51307;52.162;7.560;2023-02-16T05:14:38;101768.06;;;3.49;58.81
64841;BME280;51307;52.162;7.560;2023-02-16T05:17:08;101762.84;;;3.33;58.51
64841;BME280;51307;52.162;7.560;2023-02-16T05:19:34;101758.09;;;3.38;58.64
64841;BME280;51307;52.162;7.560;2023-02-16T05:22:00;101758.38;;;3.34;58.91
64841;BME280;51307;52.162;7.560;2023-02-16T05:24:25;101753.03;;;3.19;59.38
64841;BME280;51307;52.162;7.560;2023-02-16T05:26:51;101761.34;;;3.44;59.08
64841;BME280;51307;52.162;7.560;2023-02-16T05:29:16;101751.66;;;3.28;59.32
64841;BME280;51307;52.162;7.560;2023-02-16T05:31:42;101746.13;;;3.17;59.11
64841;BME280;51307;52.162;7.560;2023-02-16T05:34:07;101740.84;;;3.17;58.75
64841;BME280;51307;52.162;7.560;2023-02-16T05:36:33;101754.44;;;3.11;59.12
64841;BME280;51307;52.162;7.560;2023-02-16T05:38:58;101758.31;;;3.19;59.43
64841;BME280;51307;52.162;7.560;2023-02-16T05:41:24;101756.75;;;3.31;59.49
64841;BME280;51307;52.162;7.560;2023-02-16T05:46:15;101768.44;;;3.43;59.39
64841;BME280;51307;52.162;7.560;2023-02-16T05:48:40;101758.06;;;3.54;59.27
64841;BME280;51307;52.162;7.560;2023-02-16T05:51:05;101763.25;;;3.56;59.42
64841;BME280;51307;52.162;7.560;2023-02-16T05:53:31;101774.25;;;3.64;59.33
64841;BME280;51307;52.162;7.560;2023-02-16T05:55:56;101772.91;;;3.57;59.55
64841;BME280;51307;52.162;7.560;2023-02-16T05:58:22;101777.78;;;3.49;59.74
64841;BME280;51307;52.162;7.560;2023-02-16T06:00:47;101783.22;;;3.62;59.32
64841;BME280;51307;52.162;7.560;2023-02-16T06:03:13;101786.50;;;3.51;59.51
64841;BME280;51307;52.162;7.560;2023-02-16T06:05:38;101774.97;;;3.52;59.38
64841;BME280;51307;52.162;7.560;2023-02-16T06:08:04;101776.91;;;3.64;59.32
64841;BME280;51307;52.162;7.560;2023-02-16T06:10:29;101776.47;;;3.42;59.58
64841;BME280;51307;52.162;7.560;2023-02-16T06:12:55;101772.81;;;3.59;59.18
64841;BME280;51307;52.162;7.560;2023-02-16T06:15:20;101777.31;;;3.42;59.83
64841;BME280;51307;52.162;7.560;2023-02-16T06:17:46;101772.00;;;3.42;59.95
64841;BME280;51307;52.162;7.560;2023-02-16T06:20:11;101773.44;;;3.48;59.83
64841;BME280;51307;52.162;7.560;2023-02-16T06:22:37;101778.63;;;3.49;60.00
64841;BME280;51307;52.162;7.560;2023-02-16T06:25:02;101772.00;;;3.42;60.13
64841;BME280;51307;52.162;7.560;2023-02-16T06:27:28;101775.25;;;3.47;60.08
64841;BME280;51307;52.162;7.560;2023-02-16T06:29:54;101776.00;;;3.49;60.17
64841;BME280;51307;52.162;7.560;2023-02-16T06:32:19;101769.13;;;3.47;60.33
64841;BME280;51307;52.162;7.560;2023-02-16T06:34:45;101770.34;;;3.55;60.08
64841;BME280;51307;52.162;7.560;2023-02-16T06:37:10;101767.88;;;3.52;60.60
64841;BME280;51307;52.162;7.560;2023-02-16T06:39:36;101764.22;;;3.55;60.30
64841;BME280;51307;52.162;7.560;2023-02-16T06:42:01;101753.44;;;3.58;60.21
64841;BME280;51307;52.162;7.560;2023-02-16T06:44:27;101750.78;;;3.58;60.25
64841;BME280;51307;52.162;7.560;2023-02-16T06:46:52;101739.09;;;4.05;59.04
64841;BME280;51307;52.162;7.560;2023-02-16T06:49:19;101736.06;;;3.68;59.49
64841;BME280;51307;52.162;7.560;2023-02-16T06:51:46;101736.78;;;3.56;59.79
64841;BME280;51307;52.162;7.560;2023-02-16T06:54:13;101746.97;;;3.48;60.33
64841;BME280;51307;52.162;7.560;2023-02-16T06:56:38;101744.66;;;3.72;59.90
64841;BME280;51307;52.162;7.560;2023-02-16T06:59:04;101758.94;;;3.69;60.29
64841;BME280;51307;52.162;7.560;2023-02-16T07:01:30;101755.63;;;3.80;60.22
64841;BME280;51307;52.162;7.560;2023-02-16T07:03:56;101762.28;;;4.02;60.00
64841;BME280;51307;52.162;7.560;2023-02-16T07:06:27;101762.75;;;4.09;60.01
64841;BME280;51307;52.162;7.560;2023-02-16T07:08:52;101781.13;;;4.12;59.96
64841;BME280;51307;52.162;7.560;2023-02-16T07:11:19;101773.72;;;4.46;59.17
64841;BME280;51307;52.162;7.560;2023-02-16T07:13:45;101765.97;;;4.43;59.48
64841;BME280;51307;52.162;7.560;2023-02-16T07:16:12;101761.28;;;4.48;60.14
64841;BME280;51307;52.162;7.560;2023-02-16T07:18:37;101762.19;;;4.47;60.20
64841;BME280;51307;52.162;7.560;2023-02-16T07:21:04;101767.88;;;4.55;60.16
64841;BME280;51307;52.162;7.560;2023-02-16T07:23:29;101781.84;;;4.71;59.62
64841;BME280;51307;52.162;7.560;2023-02-16T07:25:55;101787.28;;;4.41;60.70
64841;BME280;51307;52.162;7.560;2023-02-16T07:28:20;101770.91;;;4.34;60.83
64841;BME280;51307;52.162;7.560;2023-02-16T07:30:46;101771.66;;;4.36;60.43
64841;BME280;51307;52.162;7.560;2023-02-16T07:33:11;101774.59;;;4.17;60.59
64841;BME280;51307;52.162;7.560;2023-02-16T07:35:38;101772.41;;;4.24;60.73
64841;BME280;51307;52.162;7.560;2023-02-16T07:38:04;101780.53;;;4.35;60.70
64841;BME280;51307;52.162;7.560;2023-02-16T07:40:30;101778.56;;;4.39;60.67
64841;BME280;51307;52.162;7.560;2023-02-16T07:43:02;101781.09;;;4.41;60.58
64841;BME280;51307;52.162;7.560;2023-02-16T07:45:28;101783.59;;;4.58;60.48
64841;BME280;51307;52.162;7.560;2023-02-16T07:47:54;101785.13;;;4.48;60.53
64841;BME280;51307;52.162;7.560;2023-02-16T07:50:20;101784.44;;;4.59;60.49
64841;BME280;51307;52.162;7.560;2023-02-16T07:52:45;101792.88;;;4.51;60.86
64841;BME280;51307;52.162;7.560;2023-02-16T07:55:11;101802.97;;;4.73;60.32
64841;BME280;51307;52.162;7.560;2023-02-16T07:57:38;101798.91;;;4.67;60.54
64841;BME280;51307;52.162;7.560;2023-02-16T08:00:05;101776.19;;;5.05;59.79
64841;BME280;51307;52.162;7.560;2023-02-16T08:02:33;101770.50;;;4.69;61.26
64841;BME280;51307;52.162;7.560;2023-02-16T08:04:58;101773.56;;;4.91;60.83
64841;BME280;51307;52.162;7.560;2023-02-16T08:07:24;101773.69;;;4.75;61.37
64841;BME280;51307;52.162;7.560;2023-02-16T08:09:50;101774.66;;;4.74;61.75
64841;BME280;51307;52.162;7.560;2023-02-16T08:12:16;101779.59;;;5.07;61.02
64841;BME280;51307;52.162;7.560;2023-02-16T08:14:42;101776.19;;;5.05;60.93
64841;BME280;51307;52.162;7.560;2023-02-16T08:17:08;101775.34;;;5.04;61.29
64841;BME280;51307;52.162;7.560;2023-02-16T08:19:34;101780.94;;;5.27;60.43
64841;BME280;51307;52.162;7.560;2023-02-16T08:22:01;101793.50;;;5.51;60.14
64841;BME280;51307;52.162;7.560;2023-02-16T08:24:27;101790.03;;;5.50;60.34
64841;BME280;51307;52.162;7.560;2023-02-16T08:26:53;101789.63;;;5.69;60.16
64841;BME280;51307;52.162;7.560;2023-02-16T08:29:21;101786.56;;;5.76;60.13
64841;BME280;51307;52.162;7.560;2023-02-16T08:31:48;101783.78;;;5.90;59.81
64841;BME280;51307;52.162;7.560;2023-02-16T08:34:19;101783.78;;;5.90;59.74
64841;BME280;51307;52.162;7.560;2023-02-16T08:36:46;101781.25;;;6.01;59.51
64841;BME280;51307;52.162;7.560;2023-02-16T08:39:15;101784.13;;;6.11;59.37
64841;BME280;51307;52.162;7.560;2023-02-16T08:41:42;101776.16;;;6.11;59.18
64841;BME280;51307;52.162;7.560;2023-02-16T08:44:09;101774.97;;;6.15;59.28
64841;BME280;51307;52.162;7.560;2023-02-16T08:46:37;101774.22;;;6.13;59.19
64841;BME280;51307;52.162;7.560;2023-02-16T08:49:04;101777.09;;;6.23;59.05
64841;BME280;51307;52.162;7.560;2023-02-16T08:51:34;101765.41;;;6.26;59.00
64841;BME280;51307;52.162;7.560;2023-02-16T08:54:02;101772.94;;;6.32;59.07
64841;BME280;51307;52.162;7.560;2023-02-16T08:56:28;101775.81;;;6.42;58.77
64841;BME280;51307;52.162;7.560;2023-02-16T08:58:55;101786.75;;;6.50;58.65
64841;BME280;51307;52.162;7.560;2023-02-16T09:01:20;101775.88;;;6.53;58.32
64841;BME280;51307;52.162;7.560;2023-02-16T09:03:48;101774.94;;;6.54;58.50
64841;BME280;51307;52.162;7.560;2023-02-16T09:06:16;101771.97;;;6.46;58.33
64841;BME280;51307;52.162;7.560;2023-02-16T09:08:44;101775.84;;;6.66;58.04
64841;BME280;51307;52.162;7.560;2023-02-16T09:11:14;101784.69;;;6.53;58.31
64841;BME280;51307;52.162;7.560;2023-02-16T09:13:41;101784.56;;;6.68;58.03
64841;BME280;51307;52.162;7.560;2023-02-16T09:16:11;101784.13;;;6.74;58.12
64841;BME280;51307;52.162;7.560;2023-02-16T09:18:38;101792.19;;;6.85;57.76
64841;BME280;51307;52.162;7.560;2023-02-16T09:21:06;101791.34;;;6.85;57.75
64841;BME280;51307;52.162;7.560;2023-02-16T09:23:38;101797.06;;;6.91;57.83
64841;BME280;51307;52.162;7.560;2023-02-16T09:26:04;101799.63;;;6.80;58.13
64841;BME280;51307;52.162;7.560;2023-02-16T09:28:38;101795.19;;;6.81;57.85
64841;BME280;51307;52.162;7.560;2023-02-16T09:31:13;101796.84;;;6.95;57.76
64841;BME280;51307;52.162;7.560;2023-02-16T09:33:47;101796.94;;;6.93;57.72
64841;BME280;51307;52.162;7.560;2023-02-16T09:36:12;101793.66;;;7.02;57.50
64841;BME280;51307;52.162;7.560;2023-02-16T09:38:38;101794.72;;;7.00;57.74
64841;BME280;51307;52.162;7.560;2023-02-16T09:44:04;101795.97;;;7.07;57.50
64841;BME280;51307;52.162;7.560;2023-02-16T09:46:34;101794.44;;;7.16;57.35
64841;BME280;51307;52.162;7.560;2023-02-16T09:49:02;101792.47;;;7.06;57.42
64841;BME280;51307;52.162;7.560;2023-02-16T09:51:36;101793.53;;;7.28;57.14
64841;BME280;51307;52.162;7.560;2023-02-16T09:57:21;101797.03;;;7.29;57.06
64841;BME280;51307;52.162;7.560;2023-02-16T10:02:39;101806.31;;;7.47;56.92
64841;BME280;51307;52.162;7.560;2023-02-16T10:07:59;101804.97;;;7.41;56.70
64841;BME280;51307;52.162;7.560;2023-02-16T10:13:05;101795.78;;;7.46;56.61
64841;BME280;51307;52.162;7.560;2023-02-16T10:15:37;101791.22;;;7.59;56.62
64841;BME280;51307;52.162;7.560;2023-02-16T10:18:25;101787.47;;;7.62;56.63
64841;BME280;51307;52.162;7.560;2023-02-16T10:20:57;101780.44;;;7.61;56.76
64841;BME280;51307;52.162;7.560;2023-02-16T10:23:45;101779.09;;;7.55;56.30
64841;BME280;51307;52.162;7.560;2023-02-16T10:31:42;101786.41;;;7.64;56.24
64841;BME280;51307;52.162;7.560;2023-02-16T10:34:32;101783.25;;;7.70;55.98
64841;BME280;51307;52.162;7.560;2023-02-16T10:48:12;101787.38;;;7.74;55.95
64841;BME280;51307;52.162;7.560;2023-02-16T10:50:47;101795.59;;;7.60;56.36
64841;BME280;51307;52.162;7.560;2023-02-16T10:53:21;101793.47;;;7.77;55.78
64841;BME280;51307;52.162;7.560;2023-02-16T10:55:48;101796.72;;;7.80;55.88
64841;BME280;51307;52.162;7.560;2023-02-16T10:58:25;101802.41;;;7.75;56.16
64841;BME280;51307;52.162;7.560;2023-02-16T11:01:02;101803.16;;;8.00;55.52
64841;BME280;51307;52.162;7.560;2023-02-16T11:03:45;101809.78;;;7.72;56.20
64841;BME280;51307;52.162;7.560;2023-02-16T11:06:23;101807.41;;;7.91;56.06
64841;BME280;51307;52.162;7.560;2023-02-16T11:09:01;101803.75;;;7.81;56.19
64841;BME280;51307;52.162;7.560;2023-02-16T11:11:39;101795.53;;;7.96;55.99
64841;BME280;51307;52.162;7.560;2023-02-16T11:14:22;101809.25;;;7.91;56.21
64841;BME280;51307;52.162;7.560;2023-02-16T11:17:03;101797.97;;;7.99;56.03
64841;BME280;51307;52.162;7.560;2023-02-16T11:19:29;101795.19;;;8.00;56.12
64841;BME280;51307;52.162;7.560;2023-02-16T11:21:57;101799.41;;;8.03;55.96
64841;BME280;51307;52.162;7.560;2023-02-16T11:24:36;101794.72;;;8.06;56.08
64841;BME280;51307;52.162;7.560;2023-02-16T11:29:28;101783.09;;;8.19;55.98
64841;BME280;51307;52.162;7.560;2023-02-16T11:31:55;101778.13;;;8.14;56.24
64841;BME280;51307;52.162;7.560;2023-02-16T11:37:32;101779.94;;;8.14;56.50
64841;BME280;51307;52.162;7.560;2023-02-16T11:42:54;101769.25;;;8.14;56.67
64841;BME280;51307;52.162;7.560;2023-02-16T11:45:34;101769.16;;;8.27;56.62
64841;BME280;51307;52.162;7.560;2023-02-16T11:48:06;101765.00;;;8.11;57.16
64841;BME280;51307;52.162;7.560;2023-02-16T11:50:35;101756.94;;;8.13;57.23
64841;BME280;51307;52.162;7.560;2023-02-16T11:55:36;101750.84;;;8.11;57.82
64841;BME280;51307;52.162;7.560;2023-02-16T11:58:32;101749.75;;;8.36;57.45
64841;BME280;51307;52.162;7.560;2023-02-16T12:12:26;101742.13;;;8.31;59.06
64841;BME280;51307;52.162;7.560;2023-02-16T12:18:01;101729.00;;;8.51;59.49
64841;BME280;51307;52.162;7.560;2023-02-16T12:23:48;101721.00;;;8.51;60.00
64841;BME280;51307;52.162;7.560;2023-02-16T12:43:45;101720.88;;;8.52;61.18
64841;BME280;51307;52.162;7.560;2023-02-16T12:46:35;101715.44;;;8.42;61.51
64841;BME280;51307;52.162;7.560;2023-02-16T12:54:29;101754.97;;;8.15;62.22
64841;BME280;51307;52.162;7.560;2023-02-16T12:57:11;101749.91;;;8.34;61.54
64841;BME280;51307;52.162;7.560;2023-02-16T13:02:19;101747.72;;;8.17;61.70
64841;BME280;51307;52.162;7.560;2023-02-16T13:12:46;101747.09;;;8.02;61.65
64841;BME280;51307;52.162;7.560;2023-02-16T13:15:21;101735.34;;;8.16;61.12
64841;BME280;51307;52.162;7.560;2023-02-16T13:18:01;101723.09;;;8.13;61.43
64841;BME280;51307;52.162;7.560;2023-02-16T13:20:29;101711.47;;;8.14;61.57
64841;BME280;51307;52.162;7.560;2023-02-16T13:23:36;101709.66;;;8.26;61.53
64841;BME280;51307;52.162;7.560;2023-02-16T13:29:06;101687.72;;;8.11;61.57
64841;BME280;51307;52.162;7.560;2023-02-16T13:37:48;101685.19;;;8.21;61.93
64841;BME280;51307;52.162;7.560;2023-02-16T13:43:33;101663.97;;;8.08;62.13
64841;BME280;51307;52.162;7.560;2023-02-16T13:46:12;101657.44;;;8.12;62.14
64841;BME280;51307;52.162;7.560;2023-02-16T13:48:46;101657.66;;;8.20;62.01
64841;BME280;51307;52.162;7.560;2023-02-16T13:51:16;101652.59;;;7.95;62.75
64841;BME280;51307;52.162;7.560;2023-02-16T13:53:57;101646.88;;;8.22;62.38
64841;BME280;51307;52.162;7.560;2023-02-16T13:58:57;101650.16;;;8.03;62.32
64841;BME280;51307;52.162;7.560;2023-02-16T14:01:43;101648.84;;;8.08;62.01
64841;BME280;51307;52.162;7.560;2023-02-16T14:09:52;101634.75;;;8.29;61.71
64841;BME280;51307;52.162;7.560;2023-02-16T14:12:24;101640.56;;;8.34;61.56
64841;BME280;51307;52.162;7.560;2023-02-16T14:22:52;101631.81;;;8.32;61.71
64841;BME280;51307;52.162;7.560;2023-02-16T14:27:53;101626.13;;;8.37;61.85
64841;BME280;51307;52.162;7.560;2023-02-16T14:32:53;101620.16;;;8.45;61.65
64841;BME280;51307;52.162;7.560;2023-02-16T14:35:34;101618.16;;;8.58;61.49
64841;BME280;51307;52.162;7.560;2023-02-16T14:38:06;101626.56;;;8.53;61.49
64841;BME280;51307;52.162;7.560;2023-02-16T14:40:53;101625.47;;;8.56;61.42
64841;BME280;51307;52.162;7.560;2023-02-16T14:43:32;101622.28;;;8.62;61.33
64841;BME280;51307;52.162;7.560;2023-02-16T15:00:38;101606.81;;;8.77;61.38
64841;BME280;51307;52.162;7.560;2023-02-16T15:03:17;101602.06;;;8.92;61.20
64841;BME280;51307;52.162;7.560;2023-02-16T15:05:58;101590.84;;;9.50;60.10
64841;BME280;51307;52.162;7.560;2023-02-16T15:08:28;101586.63;;;9.88;58.98
64841;BME280;51307;52.162;7.560;2023-02-16T15:13:37;101586.41;;;10.11;57.90
64841;BME280;51307;52.162;7.560;2023-02-16T15:16:04;101586.94;;;9.95;58.32
64841;BME280;51307;52.162;7.560;2023-02-16T15:20:56;101585.22;;;9.94;58.07
64841;BME280;51307;52.162;7.560;2023-02-16T15:23:27;101588.09;;;10.22;57.44
64841;BME280;51307;52.162;7.560;2023-02-16T15:26:00;101586.00;;;10.25;57.34
64841;BME280;51307;52.162;7.560;2023-02-16T15:28:29;101592.19;;;10.06;57.67
64841;BME280;51307;52.162;7.560;2023-02-16T15:31:05;101595.97;;;10.04;57.80
64841;BME280;51307;52.162;7.560;2023-02-16T15:33:40;101592.25;;;9.85;58.36
64841;BME280;51307;52.162;7.560;2023-02-16T15:36:10;101602.31;;;9.62;59.03
64841;BME280;51307;52.162;7.560;2023-02-16T15:38:40;101600.63;;;9.71;58.86
64841;BME280;51307;52.162;7.560;2023-02-16T15:41:14;101598.47;;;9.55;59.53
64841;BME280;51307;52.162;7.560;2023-02-16T15:43:49;101596.66;;;9.55;59.42
64841;BME280;51307;52.162;7.560;2023-02-16T15:46:48;101599.88;;;9.28;60.07
64841;BME280;51307;52.162;7.560;2023-02-16T15:49:26;101591.72;;;9.30;60.14
64841;BME280;51307;52.162;7.560;2023-02-16T15:51:55;101589.28;;;9.17;60.43
64841;BME280;51307;52.162;7.560;2023-02-16T15:54:27;101587.84;;;9.13;60.59
64841;BME280;51307;52.162;7.560;2023-02-16T15:57:00;101591.34;;;9.13;60.43
64841;BME280;51307;52.162;7.560;2023-02-16T16:02:21;101583.03;;;9.06;60.67
64841;BME280;51307;52.162;7.560;2023-02-16T16:04:52;101586.47;;;8.97;60.74
64841;BME280;51307;52.162;7.560;2023-02-16T16:07:30;101580.94;;;8.89;60.98
64841;BME280;51307;52.162;7.560;2023-02-16T16:09:59;101586.75;;;8.94;60.79
64841;BME280;51307;52.162;7.560;2023-02-16T16:12:26;101577.03;;;8.93;60.73
64841;BME280;51307;52.162;7.560;2023-02-16T16:17:29;101573.41;;;8.94;60.65
64841;BME280;51307;52.162;7.560;2023-02-16T16:19:57;101565.38;;;8.94;60.59
64841;BME280;51307;52.162;7.560;2023-02-16T16:22:30;101566.75;;;8.88;60.74
64841;BME280;51307;52.162;7.560;2023-02-16T16:24:58;101556.56;;;8.94;60.49